Terminal Aerodrome Forecast
Issued by NWS King Salmon, AK

Home | Current Version | Previous Version | Text Only | Print | Product List | Glossary On
Versions: 1 2 3 4 5 6 7 8 9 10 11 12 13 14 15 16 17 18 19 20 21 22 23 24
000
FTAK31 PANC 020529
TAFAKN
TAF
PAKN 020529Z 0206/0306 VRB03KT P6SM FEW045 BKN100
      TEMPO 0210/0212 5SM BR BKN008 OVC030
     FM021200 16004KT 5SM BR BKN008 OVC030
     FM021800 VRB03KT P6SM BKN030
     FM030000 18006KT P6SM BKN040=

USA.gov is the U.S. government's official web portal to all federal, state and local government web resources and services.